Stoutsville, OH (43154)

4:15 PM EST on February 11, 2016 (GMT -0500)
Circleville Ohio | | Change Station
CLOSE
Current Station
Personal Weather Station
Location: Circleville, OH
Elevation: 732 ft
Nearby Weather Stations

Elev 732 ft 39.59 °N, 82.91 °W | Updated 2 seconds ago

Overcast
Overcast
22.3 °F
Feels Like 13 °F
N
8.3
Wind Variable Wind from WNW
Gusts 9.8 mph

Today
High -- | Low -- °F
--% Chance of Precip.
Yesterday
High -- | Low -- °F
Precip. -- in
Pressure 30.31 in
Visibility 10.0 miles
Clouds Mostly Cloudy 3700 ft
Overcast 5000 ft
Windchill 13 °F
Dew Point 6 °F
Humidity 49%
Rainfall 0.00 in
Snow Depth Not available.
7:28 AM 6:02 PM
Waxing Crescent, 14% visible
METAR KLHQ 112053Z AUTO 31008KT 10SM BKN037 OVC050 M06/M13 A3026 RMK AO2 SLP262 60000 T10611128 53003
Pressure 30.31 in
Visibility 10.0 miles
Clouds Mostly Cloudy 3700 ft
Overcast 5000 ft
Windchill 13 °F
Dew Point 6 °F
Humidity 49%
Rainfall 0.00 in
Snow Depth Not available.
7:28 AM 6:02 PM
Waxing Crescent, 14% visible
METAR KLHQ 112053Z AUTO 31008KT 10SM BKN037 OVC050 M06/M13 A3026 RMK AO2 SLP262 60000 T10611128 53003

10-Day Weather Forecast

Almanac

Astronomy

Feb. 11, 2016 Rise Set
Actual Time
Civil Twilight
Nautical Twilight
Astronomical Twilight
Moon
Length of Visible Light
Length of Day
Tomorrow will be .
, % of the Moon is Illuminated

Today's Extremes

State Highs State Lows

Community

WunderPhotos

Upload Photos

1,892,159 photos uploaded!

WunderBlog® & News

Nearby

Air Quality

  Air Quality AQ Index Pollutant
Not available.

Snow Depth

Station Depth Elevation

Earthquake Activity

City Distance Mag. Time & Date
Minimum magnitude displayed is 2.5.

Coastal Water Temperatures

Place Temperature

Stations

Nearby Weather Stations

Station Location Temp. Windchill Dew Point Humidity Wind Precip. Elev Updated Type
                   

Watches & Warnings

There are currently no watches in effect.